sensor_id;sensor_type;location;lat;lon;timestamp;temperature;humidity
69393;SHT31;56582;44.624;20.378;2022-11-11T00:01:00;11.10;95.82
69393;SHT31;56582;44.624;20.378;2022-11-11T00:03:26;11.13;95.82
69393;SHT31;56582;44.624;20.378;2022-11-11T00:05:52;11.10;95.88
69393;SHT31;56582;44.624;20.378;2022-11-11T00:08:17;11.01;96.08
69393;SHT31;56582;44.624;20.378;2022-11-11T00:10:42;11.24;95.99
69393;SHT31;56582;44.624;20.378;2022-11-11T00:13:08;11.13;95.64
69393;SHT31;56582;44.624;20.378;2022-11-11T00:15:36;11.32;95.47
69393;SHT31;56582;44.624;20.378;2022-11-11T00:18:02;11.48;94.98
69393;SHT31;56582;44.624;20.378;2022-11-11T00:20:46;11.35;94.72
69393;SHT31;56582;44.624;20.378;2022-11-11T00:23:30;11.20;95.14
69393;SHT31;56582;44.624;20.378;2022-11-11T00:26:14;11.25;95.30
69393;SHT31;56582;44.624;20.378;2022-11-11T00:28:40;11.69;93.99
69393;SHT31;56582;44.624;20.378;2022-11-11T00:31:08;11.34;94.61
69393;SHT31;56582;44.624;20.378;2022-11-11T00:33:34;11.24;95.05
69393;SHT31;56582;44.624;20.378;2022-11-11T00:36:00;11.28;94.88
69393;SHT31;56582;44.624;20.378;2022-11-11T00:38:26;11.32;95.18
69393;SHT31;56582;44.624;20.378;2022-11-11T00:41:10;11.42;94.67
69393;SHT31;56582;44.624;20.378;2022-11-11T00:43:36;11.11;95.07
69393;SHT31;56582;44.624;20.378;2022-11-11T00:46:02;11.23;94.96
69393;SHT31;56582;44.624;20.378;2022-11-11T00:48:46;11.16;95.09
69393;SHT31;56582;44.624;20.378;2022-11-11T00:51:30;11.01;95.35
69393;SHT31;56582;44.624;20.378;2022-11-11T00:53:55;11.13;95.82
69393;SHT31;56582;44.624;20.378;2022-11-11T00:56:22;11.14;95.30
69393;SHT31;56582;44.624;20.378;2022-11-11T00:58:48;11.27;94.83
69393;SHT31;56582;44.624;20.378;2022-11-11T01:01:13;11.24;95.10
69393;SHT31;56582;44.624;20.378;2022-11-11T01:03:39;11.21;94.92
69393;SHT31;56582;44.624;20.378;2022-11-11T01:06:04;11.31;94.97
69393;SHT31;56582;44.624;20.378;2022-11-11T01:08:31;11.50;94.00
69393;SHT31;56582;44.624;20.378;2022-11-11T01:10:56;11.45;93.84
69393;SHT31;56582;44.624;20.378;2022-11-11T01:13:30;11.44;94.21
69393;SHT31;56582;44.624;20.378;2022-11-11T01:16:03;11.10;94.97
69393;SHT31;56582;44.624;20.378;2022-11-11T01:18:29;11.13;94.54
69393;SHT31;56582;44.624;20.378;2022-11-11T01:21:00;11.01;95.19
69393;SHT31;56582;44.624;20.378;2022-11-11T01:23:26;10.81;95.62
69393;SHT31;56582;44.624;20.378;2022-11-11T01:25:52;11.06;95.24
69393;SHT31;56582;44.624;20.378;2022-11-11T01:28:17;11.14;94.95
69393;SHT31;56582;44.624;20.378;2022-11-11T01:30:43;10.97;95.15
69393;SHT31;56582;44.624;20.378;2022-11-11T01:33:09;10.93;95.42
69393;SHT31;56582;44.624;20.378;2022-11-11T01:35:39;11.18;94.58
69393;SHT31;56582;44.624;20.378;2022-11-11T01:38:05;11.35;94.21
69393;SHT31;56582;44.624;20.378;2022-11-11T01:40:40;11.07;94.69
69393;SHT31;56582;44.624;20.378;2022-11-11T01:46:00;10.99;95.65
69393;SHT31;56582;44.624;20.378;2022-11-11T01:48:34;10.89;95.55
69393;SHT31;56582;44.624;20.378;2022-11-11T01:51:23;10.95;95.70
69393;SHT31;56582;44.624;20.378;2022-11-11T01:53:55;10.90;95.67
69393;SHT31;56582;44.624;20.378;2022-11-11T01:56:23;10.86;95.47
69393;SHT31;56582;44.624;20.378;2022-11-11T01:58:52;11.00;95.60
69393;SHT31;56582;44.624;20.378;2022-11-11T02:01:19;10.93;95.49
69393;SHT31;56582;44.624;20.378;2022-11-11T02:03:45;11.16;94.49
69393;SHT31;56582;44.624;20.378;2022-11-11T02:06:32;11.20;94.35
69393;SHT31;56582;44.624;20.378;2022-11-11T02:08:59;11.06;94.69
69393;SHT31;56582;44.624;20.378;2022-11-11T02:11:25;10.93;94.87
69393;SHT31;56582;44.624;20.378;2022-11-11T02:14:10;11.07;94.63
69393;SHT31;56582;44.624;20.378;2022-11-11T02:16:54;11.00;94.72
69393;SHT31;56582;44.624;20.378;2022-11-11T02:19:28;10.99;94.88
69393;SHT31;56582;44.624;20.378;2022-11-11T02:22:00;10.97;95.02
69393;SHT31;56582;44.624;20.378;2022-11-11T02:24:26;11.00;95.01
69393;SHT31;56582;44.624;20.378;2022-11-11T02:26:53;11.10;94.93
69393;SHT31;56582;44.624;20.378;2022-11-11T02:29:20;11.00;95.03
69393;SHT31;56582;44.624;20.378;2022-11-11T02:31:46;11.16;94.55
69393;SHT31;56582;44.624;20.378;2022-11-11T02:34:12;11.07;94.22
69393;SHT31;56582;44.624;20.378;2022-11-11T02:36:39;11.01;94.48
69393;SHT31;56582;44.624;20.378;2022-11-11T02:39:05;11.01;94.44
69393;SHT31;56582;44.624;20.378;2022-11-11T02:41:30;11.16;94.34
69393;SHT31;56582;44.624;20.378;2022-11-11T02:44:14;11.21;94.16
69393;SHT31;56582;44.624;20.378;2022-11-11T02:46:39;11.04;94.29
69393;SHT31;56582;44.624;20.378;2022-11-11T02:49:05;11.01;94.15
69393;SHT31;56582;44.624;20.378;2022-11-11T02:51:30;10.99;94.18
69393;SHT31;56582;44.624;20.378;2022-11-11T02:53:56;10.99;94.46
69393;SHT31;56582;44.624;20.378;2022-11-11T02:56:26;10.92;94.22
69393;SHT31;56582;44.624;20.378;2022-11-11T02:59:10;10.93;94.49
69393;SHT31;56582;44.624;20.378;2022-11-11T03:01:35;10.83;94.41
69393;SHT31;56582;44.624;20.378;2022-11-11T03:04:00;10.95;94.36
69393;SHT31;56582;44.624;20.378;2022-11-11T03:06:26;10.99;94.20
69393;SHT31;56582;44.624;20.378;2022-11-11T03:08:51;11.10;93.75
69393;SHT31;56582;44.624;20.378;2022-11-11T03:11:17;11.04;93.99
69393;SHT31;56582;44.624;20.378;2022-11-11T03:13:56;11.10;94.00
69393;SHT31;56582;44.624;20.378;2022-11-11T03:16:22;11.08;93.82
69393;SHT31;56582;44.624;20.378;2022-11-11T03:19:13;11.10;93.55
69393;SHT31;56582;44.624;20.378;2022-11-11T03:21:39;11.18;93.05
69393;SHT31;56582;44.624;20.378;2022-11-11T03:24:05;11.10;93.31
69393;SHT31;56582;44.624;20.378;2022-11-11T03:26:30;11.13;93.75
69393;SHT31;56582;44.624;20.378;2022-11-11T03:28:56;11.04;93.49
69393;SHT31;56582;44.624;20.378;2022-11-11T03:31:22;10.84;93.74
69393;SHT31;56582;44.624;20.378;2022-11-11T03:33:47;10.93;93.78
69393;SHT31;56582;44.624;20.378;2022-11-11T03:36:13;10.77;94.36
69393;SHT31;56582;44.624;20.378;2022-11-11T03:38:38;10.99;93.62
69393;SHT31;56582;44.624;20.378;2022-11-11T03:41:04;11.10;92.73
69393;SHT31;56582;44.624;20.378;2022-11-11T03:43:31;11.03;93.45
69393;SHT31;56582;44.624;20.378;2022-11-11T03:45:59;10.76;93.70
69393;SHT31;56582;44.624;20.378;2022-11-11T03:48:26;10.89;93.56
69393;SHT31;56582;44.624;20.378;2022-11-11T03:50:52;10.87;93.78
69393;SHT31;56582;44.624;20.378;2022-11-11T03:53:19;10.68;94.07
69393;SHT31;56582;44.624;20.378;2022-11-11T03:55:45;10.79;93.98
69393;SHT31;56582;44.624;20.378;2022-11-11T03:58:11;10.97;93.50
69393;SHT31;56582;44.624;20.378;2022-11-11T04:00:37;10.66;93.77
69393;SHT31;56582;44.624;20.378;2022-11-11T04:03:06;10.90;93.59
69393;SHT31;56582;44.624;20.378;2022-11-11T04:05:50;10.92;93.57
69393;SHT31;56582;44.624;20.378;2022-11-11T04:08:34;10.92;93.11
69393;SHT31;56582;44.624;20.378;2022-11-11T04:11:24;10.87;93.18
69393;SHT31;56582;44.624;20.378;2022-11-11T04:13:50;10.95;92.58
69393;SHT31;56582;44.624;20.378;2022-11-11T04:16:55;10.96;92.89
69393;SHT31;56582;44.624;20.378;2022-11-11T04:19:21;11.08;92.70
69393;SHT31;56582;44.624;20.378;2022-11-11T04:22:25;10.99;92.51
69393;SHT31;56582;44.624;20.378;2022-11-11T04:24:50;11.04;92.87
69393;SHT31;56582;44.624;20.378;2022-11-11T04:27:34;11.25;92.16
69393;SHT31;56582;44.624;20.378;2022-11-11T04:29:59;11.27;91.96
69393;SHT31;56582;44.624;20.378;2022-11-11T04:32:25;10.87;92.36
69393;SHT31;56582;44.624;20.378;2022-11-11T04:35:01;10.93;92.82
69393;SHT31;56582;44.624;20.378;2022-11-11T04:37:30;10.87;93.12
69393;SHT31;56582;44.624;20.378;2022-11-11T04:39:56;11.00;92.96
69393;SHT31;56582;44.624;20.378;2022-11-11T04:42:40;11.04;92.43
69393;SHT31;56582;44.624;20.378;2022-11-11T04:45:08;10.96;92.38
69393;SHT31;56582;44.624;20.378;2022-11-11T04:50:24;10.80;92.99
69393;SHT31;56582;44.624;20.378;2022-11-11T04:52:50;10.86;93.11
69393;SHT31;56582;44.624;20.378;2022-11-11T04:55:16;10.65;93.29
69393;SHT31;56582;44.624;20.378;2022-11-11T04:58:00;10.92;93.57
69393;SHT31;56582;44.624;20.378;2022-11-11T05:00:26;10.97;93.07
69393;SHT31;56582;44.624;20.378;2022-11-11T05:02:55;10.89;93.04
69393;SHT31;56582;44.624;20.378;2022-11-11T05:08:26;10.70;92.18
69393;SHT31;56582;44.624;20.378;2022-11-11T05:11:10;10.42;93.42
69393;SHT31;56582;44.624;20.378;2022-11-11T05:13:36;10.56;93.56
69393;SHT31;56582;44.624;20.378;2022-11-11T05:16:23;10.46;93.28
69393;SHT31;56582;44.624;20.378;2022-11-11T05:19:12;10.68;92.97
69393;SHT31;56582;44.624;20.378;2022-11-11T05:22:21;10.66;92.07
69393;SHT31;56582;44.624;20.378;2022-11-11T05:24:45;10.31;93.39
69393;SHT31;56582;44.624;20.378;2022-11-11T05:27:29;10.35;93.81
69393;SHT31;56582;44.624;20.378;2022-11-11T05:29:55;10.19;93.92
69393;SHT31;56582;44.624;20.378;2022-11-11T05:32:22;10.19;94.23
69393;SHT31;56582;44.624;20.378;2022-11-11T05:34:47;10.28;93.98
69393;SHT31;56582;44.624;20.378;2022-11-11T05:37:13;10.49;93.66
69393;SHT31;56582;44.624;20.378;2022-11-11T05:39:39;10.49;93.19
69393;SHT31;56582;44.624;20.378;2022-11-11T05:42:05;10.55;93.48
69393;SHT31;56582;44.624;20.378;2022-11-11T05:44:30;10.37;93.44
69393;SHT31;56582;44.624;20.378;2022-11-11T05:46:56;10.44;93.37
69393;SHT31;56582;44.624;20.378;2022-11-11T05:49:22;10.46;93.63
69393;SHT31;56582;44.624;20.378;2022-11-11T05:51:49;10.28;93.48
69393;SHT31;56582;44.624;20.378;2022-11-11T05:54:15;10.24;93.80
69393;SHT31;56582;44.624;20.378;2022-11-11T05:56:40;10.32;93.60
69393;SHT31;56582;44.624;20.378;2022-11-11T05:59:06;10.29;93.81
69393;SHT31;56582;44.624;20.378;2022-11-11T06:01:33;10.22;93.51
69393;SHT31;56582;44.624;20.378;2022-11-11T06:03:58;10.08;93.81
69393;SHT31;56582;44.624;20.378;2022-11-11T06:06:24;10.21;93.61
69393;SHT31;56582;44.624;20.378;2022-11-11T06:08:50;10.35;92.78
69393;SHT31;56582;44.624;20.378;2022-11-11T06:11:15;10.53;92.57
69393;SHT31;56582;44.624;20.378;2022-11-11T06:13:41;10.52;92.24
69393;SHT31;56582;44.624;20.378;2022-11-11T06:16:07;10.38;92.66
69393;SHT31;56582;44.624;20.378;2022-11-11T06:18:32;10.56;92.08
69393;SHT31;56582;44.624;20.378;2022-11-11T06:20:58;10.56;92.17
69393;SHT31;56582;44.624;20.378;2022-11-11T06:23:25;10.52;94.63
69393;SHT31;56582;44.624;20.378;2022-11-11T06:25:52;10.49;93.59
69393;SHT31;56582;44.624;20.378;2022-11-11T06:28:36;10.59;92.90
69393;SHT31;56582;44.624;20.378;2022-11-11T06:31:02;10.58;93.33
69393;SHT31;56582;44.624;20.378;2022-11-11T06:33:29;10.62;93.01
69393;SHT31;56582;44.624;20.378;2022-11-11T06:35:55;10.76;92.52
69393;SHT31;56582;44.624;20.378;2022-11-11T06:38:20;10.77;91.39
69393;SHT31;56582;44.624;20.378;2022-11-11T06:40:46;10.35;91.69
69393;SHT31;56582;44.624;20.378;2022-11-11T06:43:12;10.25;92.25
69393;SHT31;56582;44.624;20.378;2022-11-11T06:45:38;10.15;92.75
69393;SHT31;56582;44.624;20.378;2022-11-11T06:48:04;10.34;92.45
69393;SHT31;56582;44.624;20.378;2022-11-11T06:50:33;10.42;92.60
69393;SHT31;56582;44.624;20.378;2022-11-11T06:53:13;10.56;92.76
69393;SHT31;56582;44.624;20.378;2022-11-11T06:55:39;11.01;90.87
69393;SHT31;56582;44.624;20.378;2022-11-11T06:58:16;10.77;90.87
69393;SHT31;56582;44.624;20.378;2022-11-11T07:00:43;10.42;91.54
69393;SHT31;56582;44.624;20.378;2022-11-11T07:03:10;10.49;91.75
69393;SHT31;56582;44.624;20.378;2022-11-11T07:05:36;10.72;91.02
69393;SHT31;56582;44.624;20.378;2022-11-11T07:08:07;10.58;91.07
69393;SHT31;56582;44.624;20.378;2022-11-11T07:10:34;10.55;91.44
69393;SHT31;56582;44.624;20.378;2022-11-11T07:13:00;10.37;91.61
69393;SHT31;56582;44.624;20.378;2022-11-11T07:15:26;10.28;92.02
69393;SHT31;56582;44.624;20.378;2022-11-11T07:17:52;10.46;91.79
69393;SHT31;56582;44.624;20.378;2022-11-11T07:20:17;10.55;91.56
69393;SHT31;56582;44.624;20.378;2022-11-11T07:22:43;10.55;91.13
69393;SHT31;56582;44.624;20.378;2022-11-11T07:25:08;10.24;91.65
69393;SHT31;56582;44.624;20.378;2022-11-11T07:27:38;10.29;91.97
69393;SHT31;56582;44.624;20.378;2022-11-11T07:30:05;10.10;92.11
69393;SHT31;56582;44.624;20.378;2022-11-11T07:32:30;10.19;92.28
69393;SHT31;56582;44.624;20.378;2022-11-11T07:34:56;10.45;92.92
69393;SHT31;56582;44.624;20.378;2022-11-11T07:37:22;10.50;94.34
69393;SHT31;56582;44.624;20.378;2022-11-11T07:39:47;11.31;96.12
69393;SHT31;56582;44.624;20.378;2022-11-11T07:42:12;11.28;91.34
69393;SHT31;56582;44.624;20.378;2022-11-11T07:44:38;11.71;92.02
69393;SHT31;56582;44.624;20.378;2022-11-11T07:47:03;11.37;88.55
69393;SHT31;56582;44.624;20.378;2022-11-11T07:49:29;11.34;91.04
69393;SHT31;56582;44.624;20.378;2022-11-11T07:51:54;11.66;88.95
69393;SHT31;56582;44.624;20.378;2022-11-11T07:54:20;11.61;88.63
69393;SHT31;56582;44.624;20.378;2022-11-11T07:56:45;11.93;90.01
69393;SHT31;56582;44.624;20.378;2022-11-11T07:59:11;12.19;89.22
69393;SHT31;56582;44.624;20.378;2022-11-11T08:01:36;12.29;86.02
69393;SHT31;56582;44.624;20.378;2022-11-11T08:04:02;12.82;88.99
69393;SHT31;56582;44.624;20.378;2022-11-11T08:06:28;13.19;81.27
69393;SHT31;56582;44.624;20.378;2022-11-11T08:08:54;12.93;82.20
69393;SHT31;56582;44.624;20.378;2022-11-11T08:11:19;12.22;84.28
69393;SHT31;56582;44.624;20.378;2022-11-11T08:14:05;12.72;86.86
69393;SHT31;56582;44.624;20.378;2022-11-11T08:16:30;12.85;85.90
69393;SHT31;56582;44.624;20.378;2022-11-11T08:18:56;12.93;83.45
69393;SHT31;56582;44.624;20.378;2022-11-11T08:21:23;12.74;84.76
69393;SHT31;56582;44.624;20.378;2022-11-11T08:23:49;13.32;85.12
69393;SHT31;56582;44.624;20.378;2022-11-11T08:26:17;13.73;84.76
69393;SHT31;56582;44.624;20.378;2022-11-11T08:28:43;13.09;81.55
69393;SHT31;56582;44.624;20.378;2022-11-11T08:31:09;12.38;82.57
69393;SHT31;56582;44.624;20.378;2022-11-11T08:33:35;11.99;83.67
69393;SHT31;56582;44.624;20.378;2022-11-11T08:36:00;12.16;84.97
69393;SHT31;56582;44.624;20.378;2022-11-11T08:38:27;12.26;83.39
69393;SHT31;56582;44.624;20.378;2022-11-11T08:40:53;11.83;84.85
69393;SHT31;56582;44.624;20.378;2022-11-11T08:43:19;11.87;84.48
69393;SHT31;56582;44.624;20.378;2022-11-11T08:45:44;11.76;84.65
69393;SHT31;56582;44.624;20.378;2022-11-11T08:48:10;11.59;84.57
69393;SHT31;56582;44.624;20.378;2022-11-11T08:50:40;11.38;84.87
69393;SHT31;56582;44.624;20.378;2022-11-11T08:53:08;11.30;84.76
69393;SHT31;56582;44.624;20.378;2022-11-11T08:55:35;11.25;85.77
69393;SHT31;56582;44.624;20.378;2022-11-11T08:58:03;11.50;85.34
69393;SHT31;56582;44.624;20.378;2022-11-11T09:00:30;11.21;85.34
69393;SHT31;56582;44.624;20.378;2022-11-11T09:03:06;11.27;84.96
69393;SHT31;56582;44.624;20.378;2022-11-11T09:05:33;11.13;85.20
69393;SHT31;56582;44.624;20.378;2022-11-11T09:08:04;11.18;85.59
69393;SHT31;56582;44.624;20.378;2022-11-11T09:10:36;10.93;85.96
69393;SHT31;56582;44.624;20.378;2022-11-11T09:13:01;11.03;86.14
69393;SHT31;56582;44.624;20.378;2022-11-11T09:15:28;11.07;86.23
69393;SHT31;56582;44.624;20.378;2022-11-11T09:17:54;11.24;86.00
69393;SHT31;56582;44.624;20.378;2022-11-11T09:20:19;11.23;86.44
69393;SHT31;56582;44.624;20.378;2022-11-11T09:22:46;11.24;86.63
69393;SHT31;56582;44.624;20.378;2022-11-11T09:25:12;11.37;86.17
69393;SHT31;56582;44.624;20.378;2022-11-11T09:27:38;11.32;86.31
69393;SHT31;56582;44.624;20.378;2022-11-11T09:30:05;11.46;85.78
69393;SHT31;56582;44.624;20.378;2022-11-11T09:32:31;11.68;85.45
69393;SHT31;56582;44.624;20.378;2022-11-11T09:34:56;11.79;85.76
69393;SHT31;56582;44.624;20.378;2022-11-11T09:37:22;12.10;84.66
69393;SHT31;56582;44.624;20.378;2022-11-11T09:39:48;12.27;84.20
69393;SHT31;56582;44.624;20.378;2022-11-11T09:42:39;12.37;83.65
69393;SHT31;56582;44.624;20.378;2022-11-11T09:45:28;12.51;83.00
69393;SHT31;56582;44.624;20.378;2022-11-11T09:50:47;12.36;84.28
69393;SHT31;56582;44.624;20.378;2022-11-11T09:53:43;11.96;84.44
69393;SHT31;56582;44.624;20.378;2022-11-11T09:56:18;12.23;84.26
69393;SHT31;56582;44.624;20.378;2022-11-11T09:59:12;11.95;84.14
69393;SHT31;56582;44.624;20.378;2022-11-11T10:01:47;11.99;85.03
69393;SHT31;56582;44.624;20.378;2022-11-11T10:07:01;12.13;83.61
69393;SHT31;56582;44.624;20.378;2022-11-11T10:09:43;12.13;83.33
69393;SHT31;56582;44.624;20.378;2022-11-11T10:12:14;11.87;83.28
69393;SHT31;56582;44.624;20.378;2022-11-11T10:14:46;11.93;83.51
69393;SHT31;56582;44.624;20.378;2022-11-11T10:17:36;11.75;83.99
69393;SHT31;56582;44.624;20.378;2022-11-11T10:22:54;11.65;85.51
69393;SHT31;56582;44.624;20.378;2022-11-11T10:25:25;11.83;85.12
69393;SHT31;56582;44.624;20.378;2022-11-11T10:27:55;11.68;84.99
69393;SHT31;56582;44.624;20.378;2022-11-11T10:30:28;11.78;84.46
69393;SHT31;56582;44.624;20.378;2022-11-11T10:33:01;11.89;85.06
69393;SHT31;56582;44.624;20.378;2022-11-11T10:35:30;12.03;84.58
69393;SHT31;56582;44.624;20.378;2022-11-11T10:38:14;12.13;84.17
69393;SHT31;56582;44.624;20.378;2022-11-11T10:40:49;11.99;84.41
69393;SHT31;56582;44.624;20.378;2022-11-11T10:43:27;12.09;83.97
69393;SHT31;56582;44.624;20.378;2022-11-11T10:50:57;12.45;83.77
69393;SHT31;56582;44.624;20.378;2022-11-11T10:56:26;12.45;83.47
69393;SHT31;56582;44.624;20.378;2022-11-11T10:59:07;12.54;83.67
69393;SHT31;56582;44.624;20.378;2022-11-11T11:01:38;12.60;83.02
69393;SHT31;56582;44.624;20.378;2022-11-11T11:04:13;12.57;82.96
69393;SHT31;56582;44.624;20.378;2022-11-11T11:06:43;12.65;82.74
69393;SHT31;56582;44.624;20.378;2022-11-11T11:09:14;12.74;82.24
69393;SHT31;56582;44.624;20.378;2022-11-11T11:14:40;12.71;82.83
69393;SHT31;56582;44.624;20.378;2022-11-11T11:17:16;12.75;82.59
69393;SHT31;56582;44.624;20.378;2022-11-11T11:19:42;12.99;81.50
69393;SHT31;56582;44.624;20.378;2022-11-11T11:22:08;12.75;82.28
69393;SHT31;56582;44.624;20.378;2022-11-11T11:24:35;12.64;82.69
69393;SHT31;56582;44.624;20.378;2022-11-11T11:27:06;12.47;83.08
69393;SHT31;56582;44.624;20.378;2022-11-11T11:29:40;12.68;83.18
69393;SHT31;56582;44.624;20.378;2022-11-11T11:34:46;13.06;81.50
69393;SHT31;56582;44.624;20.378;2022-11-11T11:37:12;12.91;81.95
69393;SHT31;56582;44.624;20.378;2022-11-11T11:39:39;12.69;82.51
69393;SHT31;56582;44.624;20.378;2022-11-11T11:42:05;12.71;82.85
69393;SHT31;56582;44.624;20.378;2022-11-11T11:44:33;12.64;83.22
69393;SHT31;56582;44.624;20.378;2022-11-11T11:55:36;12.27;82.89
69393;SHT31;56582;44.624;20.378;2022-11-11T12:03:32;12.55;83.27
69393;SHT31;56582;44.624;20.378;2022-11-11T12:21:34;12.53;84.35
69393;SHT31;56582;44.624;20.378;2022-11-11T12:24:34;12.36;83.69
69393;SHT31;56582;44.624;20.378;2022-11-11T12:30:09;12.41;84.30
69393;SHT31;56582;44.624;20.378;2022-11-11T12:33:03;12.74;83.31
69393;SHT31;56582;44.624;20.378;2022-11-11T12:41:15;12.82;82.98
69393;SHT31;56582;44.624;20.378;2022-11-11T12:44:20;12.45;83.25
69393;SHT31;56582;44.624;20.378;2022-11-11T12:50:08;12.71;82.72
69393;SHT31;56582;44.624;20.378;2022-11-11T12:55:37;12.54;83.72
69393;SHT31;56582;44.624;20.378;2022-11-11T13:01:19;12.27;84.18
69393;SHT31;56582;44.624;20.378;2022-11-11T13:03:49;12.55;83.24
69393;SHT31;56582;44.624;20.378;2022-11-11T13:09:28;12.67;83.46
69393;SHT31;56582;44.624;20.378;2022-11-11T13:12:00;12.81;83.37
69393;SHT31;56582;44.624;20.378;2022-11-11T13:16:59;13.08;82.67
69393;SHT31;56582;44.624;20.378;2022-11-11T13:22:22;13.19;81.62
69393;SHT31;56582;44.624;20.378;2022-11-11T13:24:50;13.15;81.87
69393;SHT31;56582;44.624;20.378;2022-11-11T13:30:05;12.88;82.60
69393;SHT31;56582;44.624;20.378;2022-11-11T13:32:51;13.03;82.67
69393;SHT31;56582;44.624;20.378;2022-11-11T13:37:47;13.02;82.67
69393;SHT31;56582;44.624;20.378;2022-11-11T13:40:38;13.11;81.77
69393;SHT31;56582;44.624;20.378;2022-11-11T13:43:14;13.38;81.43
69393;SHT31;56582;44.624;20.378;2022-11-11T13:45:42;13.27;82.08
69393;SHT31;56582;44.624;20.378;2022-11-11T13:48:20;13.44;82.38
69393;SHT31;56582;44.624;20.378;2022-11-11T13:50:48;13.50;82.40
69393;SHT31;56582;44.624;20.378;2022-11-11T13:53:26;13.63;79.41
69393;SHT31;56582;44.624;20.378;2022-11-11T13:55:52;13.54;80.31
69393;SHT31;56582;44.624;20.378;2022-11-11T13:58:29;13.77;80.72
69393;SHT31;56582;44.624;20.378;2022-11-11T14:01:01;13.43;82.03
69393;SHT31;56582;44.624;20.378;2022-11-11T14:03:30;13.49;80.64
69393;SHT31;56582;44.624;20.378;2022-11-11T14:13:48;13.56;81.11
69393;SHT31;56582;44.624;20.378;2022-11-11T14:27:15;13.46;80.81
69393;SHT31;56582;44.624;20.378;2022-11-11T14:29:51;13.33;80.73
69393;SHT31;56582;44.624;20.378;2022-11-11T14:35:14;13.15;81.91
69393;SHT31;56582;44.624;20.378;2022-11-11T14:38:17;13.11;82.67
69393;SHT31;56582;44.624;20.378;2022-11-11T14:40:44;13.22;85.74
69393;SHT31;56582;44.624;20.378;2022-11-11T14:43:36;13.39;81.87
69393;SHT31;56582;44.624;20.378;2022-11-11T14:46:07;13.40;83.01
69393;SHT31;56582;44.624;20.378;2022-11-11T14:51:51;13.06;83.35
69393;SHT31;56582;44.624;20.378;2022-11-11T14:54:28;13.27;84.73
69393;SHT31;56582;44.624;20.378;2022-11-11T14:57:05;13.38;82.23
69393;SHT31;56582;44.624;20.378;2022-11-11T14:59:33;13.27;82.78
69393;SHT31;56582;44.624;20.378;2022-11-11T15:02:00;13.23;82.59
69393;SHT31;56582;44.624;20.378;2022-11-11T15:04:26;13.20;83.36
69393;SHT31;56582;44.624;20.378;2022-11-11T15:07:02;13.12;83.66
69393;SHT31;56582;44.624;20.378;2022-11-11T15:09:56;13.15;82.84
69393;SHT31;56582;44.624;20.378;2022-11-11T15:15:25;13.27;82.60
69393;SHT31;56582;44.624;20.378;2022-11-11T15:20:54;13.09;82.91
69393;SHT31;56582;44.624;20.378;2022-11-11T15:23:34;12.98;83.26
69393;SHT31;56582;44.624;20.378;2022-11-11T15:26:14;13.12;84.73
69393;SHT31;56582;44.624;20.378;2022-11-11T15:32:01;12.96;83.57
69393;SHT31;56582;44.624;20.378;2022-11-11T15:37:09;13.24;82.10
69393;SHT31;56582;44.624;20.378;2022-11-11T15:39:47;13.16;82.44
69393;SHT31;56582;44.624;20.378;2022-11-11T15:44:54;12.80;82.80
69393;SHT31;56582;44.624;20.378;2022-11-11T15:47:20;12.53;83.86
69393;SHT31;56582;44.624;20.378;2022-11-11T15:49:50;12.71;83.69
69393;SHT31;56582;44.624;20.378;2022-11-11T15:54:50;12.62;84.02
69393;SHT31;56582;44.624;20.378;2022-11-11T15:59:56;12.48;84.42
69393;SHT31;56582;44.624;20.378;2022-11-11T16:02:25;12.38;84.38
69393;SHT31;56582;44.624;20.378;2022-11-11T16:04:55;12.54;84.09
69393;SHT31;56582;44.624;20.378;2022-11-11T16:07:31;12.27;84.83
69393;SHT31;56582;44.624;20.378;2022-11-11T16:10:06;12.30;84.85
69393;SHT31;56582;44.624;20.378;2022-11-11T16:12:41;12.14;85.44
69393;SHT31;56582;44.624;20.378;2022-11-11T16:15:08;12.13;85.55
69393;SHT31;56582;44.624;20.378;2022-11-11T16:17:40;12.16;85.36
69393;SHT31;56582;44.624;20.378;2022-11-11T16:20:15;11.79;86.67
69393;SHT31;56582;44.624;20.378;2022-11-11T16:22:45;12.05;86.19
69393;SHT31;56582;44.624;20.378;2022-11-11T16:25:18;12.12;86.18
69393;SHT31;56582;44.624;20.378;2022-11-11T16:27:44;12.07;85.88
69393;SHT31;56582;44.624;20.378;2022-11-11T16:30:27;12.05;86.29
69393;SHT31;56582;44.624;20.378;2022-11-11T16:32:54;12.12;86.20
69393;SHT31;56582;44.624;20.378;2022-11-11T16:35:35;12.20;85.94
69393;SHT31;56582;44.624;20.378;2022-11-11T16:38:02;12.30;85.73
69393;SHT31;56582;44.624;20.378;2022-11-11T16:45:54;12.43;85.06
69393;SHT31;56582;44.624;20.378;2022-11-11T16:50:59;12.60;84.80
69393;SHT31;56582;44.624;20.378;2022-11-11T16:53:29;12.62;84.57
69393;SHT31;56582;44.624;20.378;2022-11-11T16:55:58;12.62;84.55
69393;SHT31;56582;44.624;20.378;2022-11-11T16:58:24;12.44;84.60
69393;SHT31;56582;44.624;20.378;2022-11-11T17:00:58;12.32;85.00
69393;SHT31;56582;44.624;20.378;2022-11-11T17:03:25;12.30;85.46
69393;SHT31;56582;44.624;20.378;2022-11-11T17:10:57;12.57;84.46
69393;SHT31;56582;44.624;20.378;2022-11-11T17:13:23;12.54;84.76
69393;SHT31;56582;44.624;20.378;2022-11-11T17:15:59;12.45;84.82
69393;SHT31;56582;44.624;20.378;2022-11-11T17:18:31;12.37;85.24
69393;SHT31;56582;44.624;20.378;2022-11-11T17:20:57;12.38;85.36
69393;SHT31;56582;44.624;20.378;2022-11-11T17:23:23;12.36;85.36
69393;SHT31;56582;44.624;20.378;2022-11-11T17:25:56;12.41;85.32
69393;SHT31;56582;44.624;20.378;2022-11-11T17:28:24;12.48;85.06
69393;SHT31;56582;44.624;20.378;2022-11-11T17:30:50;12.29;85.31
69393;SHT31;56582;44.624;20.378;2022-11-11T17:33:16;12.16;85.85
69393;SHT31;56582;44.624;20.378;2022-11-11T17:35:51;12.22;85.78
69393;SHT31;56582;44.624;20.378;2022-11-11T17:38:17;12.02;86.48
69393;SHT31;56582;44.624;20.378;2022-11-11T17:40:47;12.22;85.86
69393;SHT31;56582;44.624;20.378;2022-11-11T17:43:13;12.20;85.81
69393;SHT31;56582;44.624;20.378;2022-11-11T17:45:39;12.20;85.79
69393;SHT31;56582;44.624;20.378;2022-11-11T17:48:05;12.09;86.26
69393;SHT31;56582;44.624;20.378;2022-11-11T17:50:30;12.07;86.26
69393;SHT31;56582;44.624;20.378;2022-11-11T17:52:56;12.05;86.38
69393;SHT31;56582;44.624;20.378;2022-11-11T17:55:22;12.10;86.33
69393;SHT31;56582;44.624;20.378;2022-11-11T17:57:48;12.12;86.12
69393;SHT31;56582;44.624;20.378;2022-11-11T18:00:15;12.20;85.91
69393;SHT31;56582;44.624;20.378;2022-11-11T18:02:41;12.00;86.36
69393;SHT31;56582;44.624;20.378;2022-11-11T18:05:07;11.92;86.29